Airfield :
LOGIN :

Register | Disclaimer

   EN    FR    IT 

 










Legend :    VFR   Marginal VFR   IFR   Intensive IFR   Very Intensive IFR
Visi :
Ceiling :
>= 8 km
>= 3000ft
5 to 8 km
1000 to 3000 ft
1500m to 5 km
500 to 1000 ft
800 to 1500m
200 to 500 ft
< 800m
< 200 ft
Symbols :   Thunderstorms  Fog  Heavy snow  Heavy precipitations  Wind > 20 kt
SIGMETs :     Misc.  Thunderstorms  Icing  Turbulence  Mountain Waves  Volcanic Ashes






- Airport Elevation : 512 ft
- IATA code : URO


LFOP - Rouen Vallée de Seine

CURRENT METAR :
  • 201830Z AUTO 01009KT 9999 -DZ OVC009/// ///TCU 11/10 Q1008 TEMPO 2000 RA BKN003 OVC010

EXPIRED METARs :
  • 201800Z AUTO 01009KT 9999 -DZ BKN008 OVC014 11/10 Q1008 TEMPO 2000 RA BKN003 OVC010
  • 201730Z AUTO 03009KT 9000 -RADZ FEW009 SCT014 BKN022 11/11 Q1008 TEMPO 2000 RA BKN003 OVC010
  • 201700Z AUTO 01009KT 9999 SCT009 BKN035 BKN047 12/11 Q1007 TEMPO 2000 RA BKN015 BKN030CB
  • 201630Z AUTO 01008KT CAVOK 12/11 Q1007 TEMPO 2000 RA BKN015 BKN030CB
  • 201600Z AUTO 01007KT 9999 -RA FEW011/// SCT050/// OVC062/// ///TCU 12/11 Q1007 TEMPO 4000 RA BKN015 BKN030CB

TAF TAF LFOP
Valid from the 20 at 18:00 until the 21 at 18:00 UTC


201700Z 2018/2118 04008KT 8000 SCT015 BKN100
TEMPO 2018/2111 2000 RA BKN003 OVC010
BECMG 2020/2023 34012KT
BECMG 2102/2104 23010KT
TEMPO 2106/2109 27020G30KT
ATIS : +33 2 35 80 80 34
Met : +33 2 32 86 52 80



MET'MAP, your aeronautical weather chart ! - Copyright ORBIFLY December 2007 - Disclaimer

ORBIFLY MET'MAP TEAM :

Programming & Development : Alexandra Zaïnal
Concept & Development : Baudouin d'Aumeries
Co-Development & Prog : Marc-Olivier Méhu
Technical & hardware support : Manuel Goepfert

Contact : metmap@orbifly.com




SOURCES & CREDITS :

   NOAA